sensor_id;sensor_type;location;lat;lon;timestamp;P1;durP1;ratioP1;P2;durP2;ratioP2
61989;SDS011;54506;43.930;20.410;2022-08-30T00:00:18;9.43;;;4.40;;
61989;SDS011;54506;43.930;20.410;2022-08-30T00:03:02;9.48;;;4.57;;
61989;SDS011;54506;43.930;20.410;2022-08-30T00:05:28;9.23;;;4.47;;
61989;SDS011;54506;43.930;20.410;2022-08-30T00:07:53;12.18;;;4.65;;
61989;SDS011;54506;43.930;20.410;2022-08-30T00:10:19;9.43;;;4.53;;
61989;SDS011;54506;43.930;20.410;2022-08-30T00:12:45;9.45;;;4.07;;
61989;SDS011;54506;43.930;20.410;2022-08-30T00:15:12;9.85;;;4.28;;
61989;SDS011;54506;43.930;20.410;2022-08-30T00:17:38;10.13;;;4.30;;
61989;SDS011;54506;43.930;20.410;2022-08-30T00:20:04;9.45;;;3.97;;
61989;SDS011;54506;43.930;20.410;2022-08-30T00:22:30;9.70;;;4.10;;
61989;SDS011;54506;43.930;20.410;2022-08-30T00:24:57;11.70;;;4.63;;
61989;SDS011;54506;43.930;20.410;2022-08-30T00:27:25;11.15;;;4.15;;
61989;SDS011;54506;43.930;20.410;2022-08-30T00:29:50;10.57;;;4.65;;
61989;SDS011;54506;43.930;20.410;2022-08-30T00:32:15;9.73;;;4.50;;
61989;SDS011;54506;43.930;20.410;2022-08-30T00:34:41;8.98;;;4.20;;
61989;SDS011;54506;43.930;20.410;2022-08-30T00:37:07;10.35;;;4.75;;
61989;SDS011;54506;43.930;20.410;2022-08-30T00:39:32;10.60;;;4.60;;
61989;SDS011;54506;43.930;20.410;2022-08-30T00:41:58;8.90;;;4.20;;
61989;SDS011;54506;43.930;20.410;2022-08-30T00:44:23;8.95;;;4.20;;
61989;SDS011;54506;43.930;20.410;2022-08-30T00:46:48;10.32;;;4.45;;
61989;SDS011;54506;43.930;20.410;2022-08-30T00:49:14;9.80;;;4.15;;
61989;SDS011;54506;43.930;20.410;2022-08-30T00:51:39;11.60;;;4.55;;
61989;SDS011;54506;43.930;20.410;2022-08-30T00:54:06;9.55;;;4.30;;
61989;SDS011;54506;43.930;20.410;2022-08-30T00:56:31;9.77;;;4.53;;
61989;SDS011;54506;43.930;20.410;2022-08-30T00:58:58;10.25;;;4.20;;
61989;SDS011;54506;43.930;20.410;2022-08-30T01:01:25;8.50;;;4.13;;
61989;SDS011;54506;43.930;20.410;2022-08-30T01:03:51;8.57;;;3.85;;
61989;SDS011;54506;43.930;20.410;2022-08-30T01:06:17;9.52;;;4.28;;
61989;SDS011;54506;43.930;20.410;2022-08-30T01:08:43;11.45;;;4.20;;
61989;SDS011;54506;43.930;20.410;2022-08-30T01:11:09;10.50;;;4.45;;
61989;SDS011;54506;43.930;20.410;2022-08-30T01:13:36;9.02;;;4.15;;
61989;SDS011;54506;43.930;20.410;2022-08-30T01:16:02;8.27;;;3.83;;
61989;SDS011;54506;43.930;20.410;2022-08-30T01:18:28;9.13;;;4.07;;
61989;SDS011;54506;43.930;20.410;2022-08-30T01:23:19;9.23;;;3.80;;
61989;SDS011;54506;43.930;20.410;2022-08-30T01:25:46;7.78;;;3.80;;
61989;SDS011;54506;43.930;20.410;2022-08-30T01:28:13;10.48;;;4.15;;
61989;SDS011;54506;43.930;20.410;2022-08-30T01:30:39;9.13;;;3.67;;
61989;SDS011;54506;43.930;20.410;2022-08-30T01:33:08;8.40;;;3.55;;
61989;SDS011;54506;43.930;20.410;2022-08-30T01:35:37;7.60;;;3.47;;
61989;SDS011;54506;43.930;20.410;2022-08-30T01:38:07;7.15;;;3.40;;
61989;SDS011;54506;43.930;20.410;2022-08-30T01:40:33;7.50;;;3.47;;
61989;SDS011;54506;43.930;20.410;2022-08-30T01:42:58;8.57;;;3.55;;
61989;SDS011;54506;43.930;20.410;2022-08-30T01:45:23;9.48;;;3.75;;
61989;SDS011;54506;43.930;20.410;2022-08-30T01:47:49;8.18;;;3.58;;
61989;SDS011;54506;43.930;20.410;2022-08-30T01:50:14;8.63;;;3.65;;
61989;SDS011;54506;43.930;20.410;2022-08-30T01:52:40;8.60;;;4.07;;
61989;SDS011;54506;43.930;20.410;2022-08-30T01:55:06;11.30;;;4.05;;
61989;SDS011;54506;43.930;20.410;2022-08-30T01:57:32;8.68;;;3.60;;
61989;SDS011;54506;43.930;20.410;2022-08-30T01:59:57;8.55;;;3.70;;
61989;SDS011;54506;43.930;20.410;2022-08-30T02:02:23;8.70;;;4.10;;
61989;SDS011;54506;43.930;20.410;2022-08-30T02:04:50;10.35;;;4.20;;
61989;SDS011;54506;43.930;20.410;2022-08-30T02:07:15;8.90;;;3.88;;
61989;SDS011;54506;43.930;20.410;2022-08-30T02:09:41;10.73;;;4.25;;
61989;SDS011;54506;43.930;20.410;2022-08-30T02:12:06;9.57;;;4.20;;
61989;SDS011;54506;43.930;20.410;2022-08-30T02:14:35;8.25;;;3.42;;
61989;SDS011;54506;43.930;20.410;2022-08-30T02:17:02;8.30;;;3.33;;
61989;SDS011;54506;43.930;20.410;2022-08-30T02:19:28;9.05;;;3.40;;
61989;SDS011;54506;43.930;20.410;2022-08-30T02:21:53;8.55;;;3.30;;
61989;SDS011;54506;43.930;20.410;2022-08-30T02:24:18;7.00;;;3.28;;
61989;SDS011;54506;43.930;20.410;2022-08-30T02:26:44;7.25;;;3.10;;
61989;SDS011;54506;43.930;20.410;2022-08-30T02:29:09;8.65;;;3.50;;
61989;SDS011;54506;43.930;20.410;2022-08-30T02:31:35;7.63;;;3.25;;
61989;SDS011;54506;43.930;20.410;2022-08-30T02:34:02;8.07;;;3.67;;
61989;SDS011;54506;43.930;20.410;2022-08-30T02:36:28;8.05;;;3.83;;
61989;SDS011;54506;43.930;20.410;2022-08-30T02:38:53;7.97;;;3.28;;
61989;SDS011;54506;43.930;20.410;2022-08-30T02:41:19;7.07;;;3.17;;
61989;SDS011;54506;43.930;20.410;2022-08-30T02:43:45;7.95;;;3.20;;
61989;SDS011;54506;43.930;20.410;2022-08-30T02:46:11;7.53;;;3.40;;
61989;SDS011;54506;43.930;20.410;2022-08-30T02:48:36;7.65;;;3.22;;
61989;SDS011;54506;43.930;20.410;2022-08-30T02:51:06;7.28;;;3.28;;
61989;SDS011;54506;43.930;20.410;2022-08-30T02:53:32;7.53;;;3.20;;
61989;SDS011;54506;43.930;20.410;2022-08-30T02:55:57;8.07;;;3.55;;
61989;SDS011;54506;43.930;20.410;2022-08-30T02:58:23;8.20;;;3.55;;
61989;SDS011;54506;43.930;20.410;2022-08-30T03:00:48;8.18;;;3.53;;
61989;SDS011;54506;43.930;20.410;2022-08-30T03:03:14;8.30;;;3.42;;
61989;SDS011;54506;43.930;20.410;2022-08-30T03:05:39;9.15;;;3.97;;
61989;SDS011;54506;43.930;20.410;2022-08-30T03:08:04;9.15;;;3.78;;
61989;SDS011;54506;43.930;20.410;2022-08-30T03:10:30;9.88;;;3.83;;
61989;SDS011;54506;43.930;20.410;2022-08-30T03:12:55;9.63;;;4.28;;
61989;SDS011;54506;43.930;20.410;2022-08-30T03:15:21;8.63;;;3.80;;
61989;SDS011;54506;43.930;20.410;2022-08-30T03:17:49;9.20;;;4.13;;
61989;SDS011;54506;43.930;20.410;2022-08-30T03:20:15;10.57;;;4.40;;
61989;SDS011;54506;43.930;20.410;2022-08-30T03:22:40;8.85;;;4.00;;
61989;SDS011;54506;43.930;20.410;2022-08-30T03:25:05;10.07;;;4.18;;
61989;SDS011;54506;43.930;20.410;2022-08-30T03:27:31;11.65;;;4.10;;
61989;SDS011;54506;43.930;20.410;2022-08-30T03:29:56;10.43;;;4.28;;
61989;SDS011;54506;43.930;20.410;2022-08-30T03:32:22;9.88;;;4.15;;
61989;SDS011;54506;43.930;20.410;2022-08-30T03:34:47;9.95;;;4.13;;
61989;SDS011;54506;43.930;20.410;2022-08-30T03:37:13;9.93;;;4.43;;
61989;SDS011;54506;43.930;20.410;2022-08-30T03:39:38;9.15;;;4.55;;
61989;SDS011;54506;43.930;20.410;2022-08-30T03:42:04;9.95;;;4.50;;
61989;SDS011;54506;43.930;20.410;2022-08-30T03:44:29;8.70;;;4.28;;
61989;SDS011;54506;43.930;20.410;2022-08-30T03:46:55;9.85;;;4.30;;
61989;SDS011;54506;43.930;20.410;2022-08-30T03:49:21;9.52;;;4.22;;
61989;SDS011;54506;43.930;20.410;2022-08-30T03:51:46;9.27;;;4.00;;
61989;SDS011;54506;43.930;20.410;2022-08-30T03:54:12;9.18;;;3.97;;
61989;SDS011;54506;43.930;20.410;2022-08-30T03:56:38;11.63;;;4.53;;
61989;SDS011;54506;43.930;20.410;2022-08-30T03:59:04;10.18;;;4.35;;
61989;SDS011;54506;43.930;20.410;2022-08-30T04:01:29;9.82;;;4.47;;
61989;SDS011;54506;43.930;20.410;2022-08-30T04:03:54;10.32;;;4.18;;
61989;SDS011;54506;43.930;20.410;2022-08-30T04:06:20;11.35;;;4.18;;
61989;SDS011;54506;43.930;20.410;2022-08-30T04:08:46;10.32;;;4.45;;
61989;SDS011;54506;43.930;20.410;2022-08-30T04:11:11;11.25;;;4.93;;
61989;SDS011;54506;43.930;20.410;2022-08-30T04:13:38;10.75;;;4.60;;
61989;SDS011;54506;43.930;20.410;2022-08-30T04:16:04;11.38;;;4.82;;
61989;SDS011;54506;43.930;20.410;2022-08-30T04:18:29;11.13;;;4.90;;
61989;SDS011;54506;43.930;20.410;2022-08-30T04:20:55;10.45;;;4.80;;
61989;SDS011;54506;43.930;20.410;2022-08-30T04:23:20;12.15;;;5.88;;
61989;SDS011;54506;43.930;20.410;2022-08-30T04:25:46;12.85;;;5.72;;
61989;SDS011;54506;43.930;20.410;2022-08-30T04:28:11;12.45;;;5.80;;
61989;SDS011;54506;43.930;20.410;2022-08-30T04:30:41;12.60;;;5.07;;
61989;SDS011;54506;43.930;20.410;2022-08-30T04:33:06;11.88;;;5.70;;
61989;SDS011;54506;43.930;20.410;2022-08-30T04:35:32;11.02;;;5.30;;
61989;SDS011;54506;43.930;20.410;2022-08-30T04:37:57;12.10;;;5.25;;
61989;SDS011;54506;43.930;20.410;2022-08-30T04:40:23;10.20;;;4.72;;
61989;SDS011;54506;43.930;20.410;2022-08-30T04:42:48;10.00;;;4.32;;
61989;SDS011;54506;43.930;20.410;2022-08-30T04:45:18;10.98;;;5.75;;
61989;SDS011;54506;43.930;20.410;2022-08-30T04:47:44;17.63;;;9.00;;
61989;SDS011;54506;43.930;20.410;2022-08-30T04:50:10;29.30;;;16.70;;
61989;SDS011;54506;43.930;20.410;2022-08-30T04:52:36;9.98;;;4.88;;
61989;SDS011;54506;43.930;20.410;2022-08-30T04:55:01;11.07;;;5.13;;
61989;SDS011;54506;43.930;20.410;2022-08-30T04:57:28;11.18;;;5.53;;
61989;SDS011;54506;43.930;20.410;2022-08-30T04:59:53;11.93;;;5.78;;
61989;SDS011;54506;43.930;20.410;2022-08-30T05:02:19;11.65;;;6.00;;
61989;SDS011;54506;43.930;20.410;2022-08-30T05:04:44;11.40;;;5.90;;
61989;SDS011;54506;43.930;20.410;2022-08-30T05:07:29;10.98;;;5.50;;
61989;SDS011;54506;43.930;20.410;2022-08-30T05:09:55;12.10;;;5.63;;
61989;SDS011;54506;43.930;20.410;2022-08-30T05:12:20;10.35;;;5.57;;
61989;SDS011;54506;43.930;20.410;2022-08-30T05:14:46;10.85;;;5.65;;
61989;SDS011;54506;43.930;20.410;2022-08-30T05:17:11;11.00;;;5.95;;
61989;SDS011;54506;43.930;20.410;2022-08-30T05:19:37;12.23;;;5.53;;
61989;SDS011;54506;43.930;20.410;2022-08-30T05:22:02;11.40;;;5.55;;
61989;SDS011;54506;43.930;20.410;2022-08-30T05:24:28;11.48;;;5.90;;
61989;SDS011;54506;43.930;20.410;2022-08-30T05:26:53;12.38;;;5.95;;
61989;SDS011;54506;43.930;20.410;2022-08-30T05:29:18;11.95;;;5.72;;
61989;SDS011;54506;43.930;20.410;2022-08-30T05:31:44;12.88;;;6.43;;
61989;SDS011;54506;43.930;20.410;2022-08-30T05:34:10;11.88;;;6.15;;
61989;SDS011;54506;43.930;20.410;2022-08-30T05:36:35;13.27;;;6.43;;
61989;SDS011;54506;43.930;20.410;2022-08-30T05:39:01;12.50;;;6.30;;
61989;SDS011;54506;43.930;20.410;2022-08-30T05:41:27;11.57;;;5.88;;
61989;SDS011;54506;43.930;20.410;2022-08-30T05:43:56;10.05;;;5.47;;
61989;SDS011;54506;43.930;20.410;2022-08-30T05:46:22;11.60;;;6.00;;
61989;SDS011;54506;43.930;20.410;2022-08-30T05:48:48;10.73;;;5.85;;
61989;SDS011;54506;43.930;20.410;2022-08-30T05:51:17;11.32;;;5.88;;
61989;SDS011;54506;43.930;20.410;2022-08-30T05:53:44;11.73;;;5.93;;
61989;SDS011;54506;43.930;20.410;2022-08-30T05:56:10;10.98;;;5.55;;
61989;SDS011;54506;43.930;20.410;2022-08-30T05:58:36;11.23;;;5.47;;
61989;SDS011;54506;43.930;20.410;2022-08-30T06:01:02;11.82;;;6.40;;
61989;SDS011;54506;43.930;20.410;2022-08-30T06:03:27;11.02;;;6.05;;
61989;SDS011;54506;43.930;20.410;2022-08-30T06:05:53;10.23;;;5.55;;
61989;SDS011;54506;43.930;20.410;2022-08-30T06:08:18;11.50;;;5.68;;
61989;SDS011;54506;43.930;20.410;2022-08-30T06:10:44;11.60;;;5.85;;
61989;SDS011;54506;43.930;20.410;2022-08-30T06:13:09;9.30;;;5.40;;
61989;SDS011;54506;43.930;20.410;2022-08-30T06:15:35;9.88;;;5.40;;
61989;SDS011;54506;43.930;20.410;2022-08-30T06:18:01;11.60;;;5.57;;
61989;SDS011;54506;43.930;20.410;2022-08-30T06:20:26;9.07;;;5.20;;
61989;SDS011;54506;43.930;20.410;2022-08-30T06:22:52;10.02;;;5.07;;
61989;SDS011;54506;43.930;20.410;2022-08-30T06:25:17;9.23;;;4.97;;
61989;SDS011;54506;43.930;20.410;2022-08-30T06:27:43;10.73;;;5.60;;
61989;SDS011;54506;43.930;20.410;2022-08-30T06:30:08;9.75;;;5.47;;
61989;SDS011;54506;43.930;20.410;2022-08-30T06:32:37;9.40;;;4.95;;
61989;SDS011;54506;43.930;20.410;2022-08-30T06:35:03;9.55;;;5.30;;
61989;SDS011;54506;43.930;20.410;2022-08-30T06:37:29;9.75;;;5.60;;
61989;SDS011;54506;43.930;20.410;2022-08-30T06:39:57;10.85;;;5.78;;
61989;SDS011;54506;43.930;20.410;2022-08-30T06:42:23;8.43;;;4.75;;
61989;SDS011;54506;43.930;20.410;2022-08-30T06:44:54;9.10;;;5.37;;
61989;SDS011;54506;43.930;20.410;2022-08-30T06:47:20;9.32;;;5.13;;
61989;SDS011;54506;43.930;20.410;2022-08-30T06:49:45;10.00;;;4.68;;
61989;SDS011;54506;43.930;20.410;2022-08-30T06:52:11;9.77;;;4.93;;
61989;SDS011;54506;43.930;20.410;2022-08-30T06:54:37;15.40;;;8.93;;
61989;SDS011;54506;43.930;20.410;2022-08-30T06:57:02;8.65;;;4.90;;
61989;SDS011;54506;43.930;20.410;2022-08-30T06:59:28;8.57;;;4.65;;
61989;SDS011;54506;43.930;20.410;2022-08-30T07:01:54;8.65;;;4.70;;
61989;SDS011;54506;43.930;20.410;2022-08-30T07:04:19;8.63;;;5.00;;
61989;SDS011;54506;43.930;20.410;2022-08-30T07:06:45;8.40;;;4.25;;
61989;SDS011;54506;43.930;20.410;2022-08-30T07:09:10;9.18;;;4.70;;
61989;SDS011;54506;43.930;20.410;2022-08-30T07:11:36;8.00;;;4.47;;
61989;SDS011;54506;43.930;20.410;2022-08-30T07:14:03;8.18;;;4.43;;
61989;SDS011;54506;43.930;20.410;2022-08-30T07:16:29;8.73;;;5.28;;
61989;SDS011;54506;43.930;20.410;2022-08-30T07:18:54;8.82;;;4.97;;
61989;SDS011;54506;43.930;20.410;2022-08-30T07:21:22;8.40;;;5.05;;
61989;SDS011;54506;43.930;20.410;2022-08-30T07:23:48;10.50;;;4.50;;
61989;SDS011;54506;43.930;20.410;2022-08-30T07:26:14;9.43;;;4.95;;
61989;SDS011;54506;43.930;20.410;2022-08-30T07:28:40;8.88;;;4.82;;
61989;SDS011;54506;43.930;20.410;2022-08-30T07:31:07;8.23;;;4.38;;
61989;SDS011;54506;43.930;20.410;2022-08-30T07:33:32;7.95;;;4.53;;
61989;SDS011;54506;43.930;20.410;2022-08-30T07:35:58;8.68;;;4.95;;
61989;SDS011;54506;43.930;20.410;2022-08-30T07:38:24;10.00;;;5.00;;
61989;SDS011;54506;43.930;20.410;2022-08-30T07:40:50;8.57;;;5.32;;
61989;SDS011;54506;43.930;20.410;2022-08-30T07:43:15;7.03;;;4.15;;
61989;SDS011;54506;43.930;20.410;2022-08-30T07:45:41;8.30;;;4.75;;
61989;SDS011;54506;43.930;20.410;2022-08-30T07:48:06;8.98;;;4.78;;
61989;SDS011;54506;43.930;20.410;2022-08-30T07:50:32;7.30;;;4.13;;
61989;SDS011;54506;43.930;20.410;2022-08-30T07:52:58;7.22;;;4.07;;
61989;SDS011;54506;43.930;20.410;2022-08-30T07:55:23;8.13;;;4.10;;
61989;SDS011;54506;43.930;20.410;2022-08-30T07:57:49;7.70;;;4.18;;
61989;SDS011;54506;43.930;20.410;2022-08-30T08:00:15;7.50;;;3.80;;
61989;SDS011;54506;43.930;20.410;2022-08-30T08:02:40;7.05;;;3.95;;
61989;SDS011;54506;43.930;20.410;2022-08-30T08:05:07;7.80;;;3.97;;
61989;SDS011;54506;43.930;20.410;2022-08-30T08:07:33;6.72;;;4.00;;
61989;SDS011;54506;43.930;20.410;2022-08-30T08:09:58;7.70;;;4.40;;
61989;SDS011;54506;43.930;20.410;2022-08-30T08:12:24;8.25;;;4.35;;
61989;SDS011;54506;43.930;20.410;2022-08-30T08:14:49;7.22;;;3.95;;
61989;SDS011;54506;43.930;20.410;2022-08-30T08:17:15;7.95;;;3.95;;
61989;SDS011;54506;43.930;20.410;2022-08-30T08:19:40;8.15;;;4.03;;
61989;SDS011;54506;43.930;20.410;2022-08-30T08:22:06;7.47;;;4.10;;
61989;SDS011;54506;43.930;20.410;2022-08-30T08:24:33;8.73;;;4.82;;
61989;SDS011;54506;43.930;20.410;2022-08-30T08:26:58;8.85;;;4.50;;
61989;SDS011;54506;43.930;20.410;2022-08-30T08:29:23;7.13;;;3.90;;
61989;SDS011;54506;43.930;20.410;2022-08-30T08:31:51;7.03;;;4.10;;
61989;SDS011;54506;43.930;20.410;2022-08-30T08:34:16;7.38;;;3.95;;
61989;SDS011;54506;43.930;20.410;2022-08-30T08:36:43;7.88;;;3.88;;
61989;SDS011;54506;43.930;20.410;2022-08-30T08:39:09;6.85;;;3.88;;
61989;SDS011;54506;43.930;20.410;2022-08-30T08:44:31;7.38;;;3.75;;
61989;SDS011;54506;43.930;20.410;2022-08-30T08:47:05;7.25;;;4.20;;
61989;SDS011;54506;43.930;20.410;2022-08-30T08:49:35;7.00;;;3.92;;
61989;SDS011;54506;43.930;20.410;2022-08-30T08:52:03;7.00;;;3.60;;
61989;SDS011;54506;43.930;20.410;2022-08-30T08:54:50;7.18;;;4.38;;
61989;SDS011;54506;43.930;20.410;2022-08-30T08:57:18;8.07;;;4.50;;
61989;SDS011;54506;43.930;20.410;2022-08-30T08:59:43;7.82;;;4.15;;
61989;SDS011;54506;43.930;20.410;2022-08-30T09:02:23;6.97;;;4.03;;
61989;SDS011;54506;43.930;20.410;2022-08-30T09:04:49;7.13;;;4.30;;
61989;SDS011;54506;43.930;20.410;2022-08-30T09:07:25;8.88;;;5.00;;
61989;SDS011;54506;43.930;20.410;2022-08-30T09:09:52;10.48;;;5.22;;
61989;SDS011;54506;43.930;20.410;2022-08-30T09:12:18;8.48;;;4.80;;
61989;SDS011;54506;43.930;20.410;2022-08-30T09:14:52;8.23;;;4.70;;
61989;SDS011;54506;43.930;20.410;2022-08-30T09:17:18;9.27;;;5.10;;
61989;SDS011;54506;43.930;20.410;2022-08-30T09:22:25;8.43;;;5.13;;
61989;SDS011;54506;43.930;20.410;2022-08-30T09:24:59;8.25;;;5.03;;
61989;SDS011;54506;43.930;20.410;2022-08-30T09:27:32;8.05;;;4.95;;
61989;SDS011;54506;43.930;20.410;2022-08-30T09:30:04;8.15;;;4.55;;
61989;SDS011;54506;43.930;20.410;2022-08-30T09:32:31;8.88;;;5.60;;
61989;SDS011;54506;43.930;20.410;2022-08-30T09:34:57;7.47;;;4.78;;
61989;SDS011;54506;43.930;20.410;2022-08-30T09:37:24;8.30;;;4.88;;
61989;SDS011;54506;43.930;20.410;2022-08-30T09:39:50;8.30;;;4.97;;
61989;SDS011;54506;43.930;20.410;2022-08-30T09:42:19;9.98;;;5.75;;
61989;SDS011;54506;43.930;20.410;2022-08-30T09:44:45;9.43;;;6.00;;
61989;SDS011;54506;43.930;20.410;2022-08-30T09:47:29;8.40;;;5.10;;
61989;SDS011;54506;43.930;20.410;2022-08-30T09:50:12;11.38;;;5.75;;
61989;SDS011;54506;43.930;20.410;2022-08-30T10:00:07;8.60;;;5.10;;
61989;SDS011;54506;43.930;20.410;2022-08-30T10:03:22;9.43;;;5.40;;
61989;SDS011;54506;43.930;20.410;2022-08-30T10:10:36;9.18;;;5.15;;
61989;SDS011;54506;43.930;20.410;2022-08-30T10:13:10;8.10;;;5.15;;
61989;SDS011;54506;43.930;20.410;2022-08-30T10:15:54;10.57;;;6.07;;
61989;SDS011;54506;43.930;20.410;2022-08-30T10:21:08;8.68;;;5.13;;
61989;SDS011;54506;43.930;20.410;2022-08-30T10:23:45;7.32;;;4.72;;
61989;SDS011;54506;43.930;20.410;2022-08-30T10:26:15;8.15;;;4.97;;
61989;SDS011;54506;43.930;20.410;2022-08-30T10:28:43;9.55;;;6.03;;
61989;SDS011;54506;43.930;20.410;2022-08-30T10:31:13;8.07;;;4.88;;
61989;SDS011;54506;43.930;20.410;2022-08-30T10:33:39;9.95;;;6.13;;
61989;SDS011;54506;43.930;20.410;2022-08-30T10:36:10;9.88;;;5.60;;
61989;SDS011;54506;43.930;20.410;2022-08-30T10:38:37;8.55;;;5.40;;
61989;SDS011;54506;43.930;20.410;2022-08-30T10:46:51;9.85;;;5.30;;
61989;SDS011;54506;43.930;20.410;2022-08-30T10:48:55;8.07;;;4.95;;
61989;SDS011;54506;43.930;20.410;2022-08-30T10:51:24;7.82;;;4.82;;
61989;SDS011;54506;43.930;20.410;2022-08-30T10:53:54;8.52;;;5.53;;
61989;SDS011;54506;43.930;20.410;2022-08-30T10:56:22;8.55;;;5.43;;
61989;SDS011;54506;43.930;20.410;2022-08-30T10:58:48;9.43;;;5.70;;
61989;SDS011;54506;43.930;20.410;2022-08-30T11:09:24;7.43;;;4.80;;
61989;SDS011;54506;43.930;20.410;2022-08-30T11:14:17;7.57;;;4.55;;
61989;SDS011;54506;43.930;20.410;2022-08-30T11:16:47;9.00;;;5.38;;
61989;SDS011;54506;43.930;20.410;2022-08-30T11:21:42;7.82;;;5.10;;
61989;SDS011;54506;43.930;20.410;2022-08-30T11:24:56;8.85;;;5.28;;
61989;SDS011;54506;43.930;20.410;2022-08-30T11:27:00;8.18;;;4.97;;
61989;SDS011;54506;43.930;20.410;2022-08-30T11:29:39;7.85;;;4.97;;
61989;SDS011;54506;43.930;20.410;2022-08-30T11:39:56;8.48;;;5.57;;
61989;SDS011;54506;43.930;20.410;2022-08-30T11:44:51;7.40;;;4.90;;
61989;SDS011;54506;43.930;20.410;2022-08-30T11:47:36;9.10;;;5.70;;
61989;SDS011;54506;43.930;20.410;2022-08-30T11:50:06;8.98;;;5.28;;
61989;SDS011;54506;43.930;20.410;2022-08-30T11:52:36;9.18;;;5.30;;
61989;SDS011;54506;43.930;20.410;2022-08-30T11:57:46;8.02;;;5.10;;
61989;SDS011;54506;43.930;20.410;2022-08-30T12:02:58;8.43;;;5.35;;
61989;SDS011;54506;43.930;20.410;2022-08-30T12:08:45;11.45;;;5.55;;
61989;SDS011;54506;43.930;20.410;2022-08-30T12:10:52;9.15;;;5.50;;
61989;SDS011;54506;43.930;20.410;2022-08-30T12:16:03;7.78;;;5.50;;
61989;SDS011;54506;43.930;20.410;2022-08-30T12:23:50;10.52;;;5.45;;
61989;SDS011;54506;43.930;20.410;2022-08-30T12:28:48;8.73;;;5.55;;
61989;SDS011;54506;43.930;20.410;2022-08-30T12:31:19;9.68;;;5.97;;
61989;SDS011;54506;43.930;20.410;2022-08-30T12:33:46;7.88;;;5.30;;
61989;SDS011;54506;43.930;20.410;2022-08-30T12:36:29;8.18;;;5.35;;
61989;SDS011;54506;43.930;20.410;2022-08-30T12:39:03;8.63;;;5.35;;
61989;SDS011;54506;43.930;20.410;2022-08-30T12:41:29;9.00;;;5.30;;
61989;SDS011;54506;43.930;20.410;2022-08-30T12:43:54;8.65;;;5.13;;
61989;SDS011;54506;43.930;20.410;2022-08-30T12:46:20;7.60;;;4.80;;
61989;SDS011;54506;43.930;20.410;2022-08-30T12:48:46;7.80;;;5.22;;
61989;SDS011;54506;43.930;20.410;2022-08-30T12:51:28;8.15;;;5.25;;
61989;SDS011;54506;43.930;20.410;2022-08-30T12:53:58;7.95;;;5.50;;
61989;SDS011;54506;43.930;20.410;2022-08-30T12:56:43;8.43;;;4.85;;
61989;SDS011;54506;43.930;20.410;2022-08-30T12:59:36;7.60;;;5.05;;
61989;SDS011;54506;43.930;20.410;2022-08-30T13:02:05;7.43;;;4.90;;
61989;SDS011;54506;43.930;20.410;2022-08-30T13:04:30;7.38;;;4.47;;
61989;SDS011;54506;43.930;20.410;2022-08-30T13:06:59;7.72;;;4.30;;
61989;SDS011;54506;43.930;20.410;2022-08-30T13:09:27;7.78;;;4.07;;
61989;SDS011;54506;43.930;20.410;2022-08-30T13:11:54;6.75;;;4.05;;
61989;SDS011;54506;43.930;20.410;2022-08-30T13:14:27;6.32;;;3.83;;
61989;SDS011;54506;43.930;20.410;2022-08-30T13:19:39;6.50;;;3.83;;
61989;SDS011;54506;43.930;20.410;2022-08-30T13:22:06;6.32;;;3.70;;
61989;SDS011;54506;43.930;20.410;2022-08-30T13:24:49;6.45;;;3.95;;
61989;SDS011;54506;43.930;20.410;2022-08-30T13:27:14;6.47;;;3.70;;
61989;SDS011;54506;43.930;20.410;2022-08-30T13:29:40;6.43;;;3.60;;
61989;SDS011;54506;43.930;20.410;2022-08-30T13:32:05;5.80;;;3.38;;
61989;SDS011;54506;43.930;20.410;2022-08-30T13:34:31;6.95;;;3.78;;
61989;SDS011;54506;43.930;20.410;2022-08-30T13:36:59;6.63;;;3.78;;
61989;SDS011;54506;43.930;20.410;2022-08-30T13:39:24;6.82;;;3.50;;
61989;SDS011;54506;43.930;20.410;2022-08-30T13:41:50;6.07;;;3.50;;
61989;SDS011;54506;43.930;20.410;2022-08-30T13:44:16;6.25;;;3.45;;
61989;SDS011;54506;43.930;20.410;2022-08-30T13:46:43;6.05;;;3.35;;
61989;SDS011;54506;43.930;20.410;2022-08-30T13:49:16;5.85;;;3.33;;
61989;SDS011;54506;43.930;20.410;2022-08-30T13:51:41;5.80;;;3.28;;
61989;SDS011;54506;43.930;20.410;2022-08-30T13:54:07;6.53;;;3.67;;
61989;SDS011;54506;43.930;20.410;2022-08-30T13:56:32;6.15;;;3.60;;
61989;SDS011;54506;43.930;20.410;2022-08-30T13:58:58;6.03;;;3.55;;
61989;SDS011;54506;43.930;20.410;2022-08-30T14:01:23;5.95;;;3.53;;
61989;SDS011;54506;43.930;20.410;2022-08-30T14:03:49;5.70;;;3.50;;
61989;SDS011;54506;43.930;20.410;2022-08-30T14:06:14;5.57;;;3.40;;
61989;SDS011;54506;43.930;20.410;2022-08-30T14:08:39;6.78;;;3.55;;
61989;SDS011;54506;43.930;20.410;2022-08-30T14:11:05;6.60;;;3.70;;
61989;SDS011;54506;43.930;20.410;2022-08-30T14:13:31;5.97;;;3.45;;
61989;SDS011;54506;43.930;20.410;2022-08-30T14:15:56;6.35;;;3.70;;
61989;SDS011;54506;43.930;20.410;2022-08-30T14:18:23;7.30;;;4.28;;
61989;SDS011;54506;43.930;20.410;2022-08-30T14:20:49;10.43;;;5.70;;
61989;SDS011;54506;43.930;20.410;2022-08-30T14:23:14;7.03;;;4.20;;
61989;SDS011;54506;43.930;20.410;2022-08-30T14:25:39;7.03;;;4.00;;
61989;SDS011;54506;43.930;20.410;2022-08-30T14:28:05;7.05;;;4.20;;
61989;SDS011;54506;43.930;20.410;2022-08-30T14:30:31;7.35;;;5.00;;
61989;SDS011;54506;43.930;20.410;2022-08-30T14:32:56;9.88;;;4.82;;
61989;SDS011;54506;43.930;20.410;2022-08-30T14:35:22;8.30;;;4.90;;
61989;SDS011;54506;43.930;20.410;2022-08-30T14:37:47;7.78;;;4.65;;
61989;SDS011;54506;43.930;20.410;2022-08-30T14:40:14;7.72;;;5.10;;
61989;SDS011;54506;43.930;20.410;2022-08-30T14:42:40;8.50;;;5.53;;
61989;SDS011;54506;43.930;20.410;2022-08-30T14:45:05;8.38;;;5.30;;
61989;SDS011;54506;43.930;20.410;2022-08-30T14:47:31;8.25;;;5.20;;
61989;SDS011;54506;43.930;20.410;2022-08-30T14:49:56;7.80;;;5.10;;
61989;SDS011;54506;43.930;20.410;2022-08-30T14:52:25;7.93;;;5.20;;
61989;SDS011;54506;43.930;20.410;2022-08-30T14:54:50;8.35;;;5.30;;
61989;SDS011;54506;43.930;20.410;2022-08-30T14:57:16;8.60;;;5.50;;
61989;SDS011;54506;43.930;20.410;2022-08-30T14:59:41;10.23;;;5.65;;
61989;SDS011;54506;43.930;20.410;2022-08-30T15:02:06;10.75;;;5.40;;
61989;SDS011;54506;43.930;20.410;2022-08-30T15:04:32;8.85;;;5.97;;
61989;SDS011;54506;43.930;20.410;2022-08-30T15:06:57;9.93;;;6.70;;
61989;SDS011;54506;43.930;20.410;2022-08-30T15:09:23;8.80;;;6.10;;
61989;SDS011;54506;43.930;20.410;2022-08-30T15:11:48;9.82;;;6.53;;
61989;SDS011;54506;43.930;20.410;2022-08-30T15:14:14;10.38;;;6.72;;
61989;SDS011;54506;43.930;20.410;2022-08-30T15:16:40;10.38;;;6.75;;
61989;SDS011;54506;43.930;20.410;2022-08-30T15:19:06;9.35;;;6.40;;
61989;SDS011;54506;43.930;20.410;2022-08-30T15:21:33;8.43;;;5.90;;
61989;SDS011;54506;43.930;20.410;2022-08-30T15:24:00;9.65;;;6.72;;
61989;SDS011;54506;43.930;20.410;2022-08-30T15:26:26;10.13;;;7.05;;
61989;SDS011;54506;43.930;20.410;2022-08-30T15:28:52;10.73;;;7.30;;
61989;SDS011;54506;43.930;20.410;2022-08-30T15:31:18;9.73;;;6.63;;
61989;SDS011;54506;43.930;20.410;2022-08-30T15:33:43;10.68;;;7.60;;
61989;SDS011;54506;43.930;20.410;2022-08-30T15:36:10;10.15;;;7.32;;
61989;SDS011;54506;43.930;20.410;2022-08-30T15:38:35;10.38;;;7.30;;
61989;SDS011;54506;43.930;20.410;2022-08-30T15:41:04;11.88;;;7.82;;
61989;SDS011;54506;43.930;20.410;2022-08-30T15:43:29;8.73;;;6.13;;